Latest Weather Observations for Ivanhoe Airport

IDN60801

Issued at 3:02 pm EST Monday 27 May 2019 (issued every 10 minutes, with the page automatically refreshed every 10 minutes)

About weather observations | Map of weather stations | Latest weather observations for NSW | Other Formats
Station Details ID: 049000 Name: IVANHOE AERODROME AWS Lat: -32.88 Lon: 144.31 Height: 100.0 m
Data from the previous 72 hours. | See also: Recent months at Ivanhoe Airport
Date/Time
EST
Temp
°C
App
Temp
°C
Dew
Point
°C
Rel
Hum
%
Delta-T
°C
Wind Press
QNH
hPa
Press
MSL
hPa
Rain since
9am
mm
Dir  Spd
km/h
Gust
km/h
Spd
kts
Gust
kts
27/03:00pm 15.3 8.3 2.1 41 5.9 WSW 28 39 15 21 1017.6 1017.5 0.2
27/02:30pm 14.7 8.1 2.3 43 5.5 WSW 26 41 14 22 1017.3 1017.2 0.2
27/02:00pm 14.5 7.4 3.3 47 5.1 WSW 30 44 16 24 1017.2 1017.1 0.2
27/01:30pm 14.9 8.2 3.7 47 5.1 WSW 28 46 15 25 1017.2 1017.1 0.2
27/01:23pm 14.5 7.7 3.3 47 5.1 WSW 28 46 15 25 1017.3 1017.2 0.2
27/01:00pm 14.3 8.0 3.7 49 4.8 WSW 26 39 14 21 1017.3 1017.2 0.2
27/12:30pm 13.7 6.8 4.6 54 4.2 W 30 43 16 23 1017.4 1017.3 0.2
27/12:00pm 13.9 8.5 6.5 61 3.6 WSW 24 35 13 19 1017.7 1017.6 0.2
27/11:30am 13.1 8.8 7.8 70 2.6 WSW 20 30 11 16 1018.0 1017.9 0.2
27/11:00am 11.1 5.6 6.0 71 2.4 SW 24 33 13 18 1018.4 1018.3 0.2
27/10:30am 11.1 5.2 7.6 79 1.7 WSW 28 39 15 21 1018.4 1018.3 0.2
27/10:00am 10.2 3.4 7.1 81 1.5 WSW 32 54 17 29 1018.0 1017.9 0.0
27/09:55am 11.0 5.1 7.3 78 1.8 WSW 28 54 15 29 1018.0 1017.9 0.0
27/09:30am 11.0 7.8 8.4 84 1.3 W 15 20 8 11 1017.4 1017.3 0.0
27/09:00am 10.4 6.8 8.2 86 1.1 W 17 24 9 13 1017.1 1017.0 0.0
27/08:30am 9.8 5.7 7.9 88 0.9 W 19 28 10 15 1016.9 1016.8 0.0
27/08:00am 10.1 5.0 7.5 84 1.2 WSW 24 35 13 19 1016.6 1016.5 0.0
27/07:30am 10.9 6.3 5.4 69 2.5 WNW 19 26 10 14 1015.4 1015.4 0.0
27/07:00am 10.5 5.6 5.3 70 2.4 WNW 20 26 11 14 1014.9 1014.9 0.0
27/06:30am 10.6 5.9 5.2 69 2.5 WNW 19 22 10 12 1014.6 1014.6 0.0
27/06:00am 11.0 5.7 5.1 67 2.7 WNW 22 32 12 17 1014.3 1014.3 0.0
27/05:30am 11.0 5.7 5.1 67 2.7 WNW 22 30 12 16 1014.2 1014.2 0.0
27/05:00am 11.2 6.3 5.1 66 2.8 WNW 20 30 11 16 1014.1 1014.1 0.0
27/04:30am 11.2 5.9 4.9 65 2.9 WNW 22 30 12 16 1014.4 1014.4 0.0
27/04:00am 10.7 5.9 4.4 65 2.8 WNW 19 24 10 13 1014.5 1014.5 0.0
27/03:30am 10.0 5.9 4.2 67 2.6 NW 15 19 8 10 1014.5 1014.5 0.0
27/03:00am 10.4 6.3 4.3 66 2.7 NW 15 20 8 11 1014.6 1014.6 0.0
27/02:30am 10.4 6.3 4.1 65 2.8 NW 15 19 8 10 1014.9 1014.9 0.0
27/02:00am 10.5 6.7 4.0 64 2.9 NW 13 19 7 10 1015.3 1015.3 0.0
27/01:30am 11.2 7.1 4.2 62 3.1 WNW 15 20 8 11 1015.6 1015.6 0.0
27/01:00am 11.1 6.6 4.3 63 3.1 NW 17 22 9 12 1015.9 1015.9 0.0
27/12:30am 11.2 7.2 4.7 64 3.0 NNW 15 19 8 10 1015.9 1015.9 0.0
27/12:00am 9.6 5.9 4.2 69 2.4 NNW 13 17 7 9 1016.2 1016.2 0.0
 
Date/Time
EST
Temp
°C
App
Temp
°C
Dew
Point
°C
Rel
Hum
%
Delta-T
°C
Wind Press
QNH
hPa
Press
MSL
hPa
Rain since
9am
mm
Dir  Spd
km/h
Gust
km/h
Spd
kts
Gust
kts
26/11:30pm 9.6 5.9 4.2 69 2.4 NNW 13 17 7 9 1016.3 1016.3 0.0
26/11:00pm 9.6 5.8 4.0 68 2.5 NNW 13 15 7 8 1016.6 1016.5 0.0
26/10:30pm 9.9 6.1 3.9 66 2.7 NNW 13 15 7 8 1016.7 1016.6 0.0
26/10:00pm 10.1 6.3 3.8 65 2.8 NNW 13 17 7 9 1016.8 1016.7 0.0
26/09:30pm 10.0 6.6 4.0 66 2.7 NNW 11 13 6 7 1017.2 1017.1 0.0
26/09:00pm 10.4 7.3 3.7 63 3.0 NNW 9 11 5 6 1017.3 1017.2 0.0
26/08:30pm 11.1 7.7 3.9 61 3.2 NW 11 13 6 7 1017.4 1017.3 0.0
26/08:00pm 11.7 8.3 4.0 59 3.5 NW 11 13 6 7 1017.2 1017.1 0.0
26/07:30pm 12.3 8.9 4.0 57 3.8 NW 11 13 6 7 1017.3 1017.2 0.0
26/07:00pm 12.4 9.4 3.9 56 3.8 NNW 9 11 5 6 1017.3 1017.2 0.0
26/06:30pm 13.1 10.5 4.0 54 4.1 NW 7 9 4 5 1017.0 1016.9 0.0
26/06:00pm 14.0 11.0 4.0 51 4.6 W 9 11 5 6 1017.0 1016.9 0.0
26/05:30pm 15.2 11.4 4.0 47 5.2 W 13 17 7 9 1016.7 1016.6 0.0
26/05:00pm 16.2 12.1 4.6 46 5.5 W 15 19 8 10 1016.6 1016.5 0.0
26/04:30pm 16.8 11.9 4.2 43 5.9 WNW 19 28 10 15 1016.6 1016.5 0.0
26/04:00pm 17.2 12.8 4.5 43 6.0 WNW 17 24 9 13 1016.5 1016.4 0.0
26/03:30pm 17.2 12.6 3.8 41 6.3 W 17 24 9 13 1016.8 1016.7 0.0
26/03:00pm 17.3 14.0 4.6 43 6.0 WSW 11 20 6 11 1016.9 1016.8 0.0
26/02:30pm 17.0 12.6 4.7 44 5.9 W 17 24 9 13 1017.0 1016.9 0.0
26/02:00pm 17.2 14.5 5.8 47 5.6 SW 9 20 5 11 1017.1 1017.0 0.0
26/01:30pm 16.4 13.8 6.0 50 5.1 W 9 17 5 9 1017.4 1017.3 0.0
26/01:00pm 16.4 13.6 7.1 54 4.6 SSW 11 17 6 9 1017.7 1017.6 0.0
26/12:30pm 16.0 14.3 7.5 57 4.3 SSW 6 13 3 7 1018.2 1018.1 0.0
26/12:00pm 15.7 14.1 8.0 60 3.9 W 6 11 3 6 1018.8 1018.7 0.0
26/11:30am 14.8 12.5 7.4 61 3.7 SSW 9 17 5 9 1019.4 1019.3 0.0
26/11:00am 14.4 12.0 8.6 68 2.9 SSW 11 15 6 8 1019.7 1019.6 0.0
26/10:30am 13.9 11.8 8.3 69 2.8 SW 9 13 5 7 1020.1 1020.0 0.0
26/10:00am 13.4 10.6 8.7 73 2.4 SSW 13 17 7 9 1020.2 1020.1 0.0
26/09:30am 12.9 10.2 8.8 76 2.1 SW 13 20 7 11 1020.0 1019.9 0.0
26/09:00am 12.4 9.4 9.4 82 1.5 SW 15 20 8 11 1020.0 1019.9 0.2
26/08:30am 11.4 9.3 9.7 89 0.9 WSW 11 19 6 10 1019.6 1019.5 0.2
26/08:00am 9.9 8.0 9.0 94 0.4 W 9 11 5 6 1019.4 1019.3 0.2
26/07:30am 8.9 6.8 8.3 96 0.3 WSW 9 11 5 6 1019.0 1018.9 0.2
26/07:00am 9.0 6.9 8.1 94 0.4 WSW 9 11 5 6 1018.9 1018.8 0.2
26/06:30am 9.2 7.0 8.0 92 0.6 WSW 9 11 5 6 1018.5 1018.4 0.2
26/06:00am 9.8 7.7 8.2 90 0.8 WSW 9 11 5 6 1018.4 1018.3 0.2
26/05:30am 10.4 7.9 8.3 87 1.0 SW 11 15 6 8 1018.0 1017.9 0.2
26/05:00am 10.9 8.1 8.7 86 1.1 WSW 13 17 7 9 1018.0 1017.9 0.2
26/04:30am 11.0 8.8 9.3 89 0.9 WSW 11 13 6 7 1017.6 1017.5 0.2
26/04:00am 10.8 9.3 9.2 90 0.8 WSW 7 9 4 5 1017.5 1017.4 0.2
26/03:30am 11.1 9.6 9.2 88 1.0 WSW 7 9 4 5 1017.4 1017.3 0.2
26/03:00am 11.3 9.7 8.9 85 1.2 SW 7 9 4 5 1017.2 1017.1 0.2
26/02:30am 12.2 10.7 9.0 81 1.6 SSW 7 9 4 5 1017.2 1017.1 0.2
26/02:00am 13.4 11.6 9.5 77 2.0 SSW 9 13 5 7 1017.4 1017.3 0.2
26/01:30am 14.5 11.2 9.5 72 2.6 SSW 17 24 9 13 1017.2 1017.1 0.2
26/01:00am 14.7 12.3 10.1 74 2.4 SW 13 20 7 11 1017.2 1017.1 0.2
26/12:30am 15.5 11.3 9.8 69 3.0 SW 22 33 12 18 1017.2 1017.1 0.2
26/12:00am 16.5 10.9 10.1 66 3.4 SW 30 43 16 23 1017.0 1016.9 0.2
 
Date/Time
EST
Temp
°C
App
Temp
°C
Dew
Point
°C
Rel
Hum
%
Delta-T
°C
Wind Press
QNH
hPa
Press
MSL
hPa
Rain since
9am
mm
Dir  Spd
km/h
Gust
km/h
Spd
kts
Gust
kts
25/11:55pm 16.9 11.7 10.1 64 3.6 SW 28 43 15 23 1017.0 1016.9 0.2
25/11:30pm 17.7 15.8 10.6 63 3.8 W 11 17 6 9 1016.5 1016.4 0.0
25/11:00pm 17.4 16.0 10.8 65 3.6 W 9 11 5 6 1016.1 1016.1 0.0
25/10:30pm 17.8 16.3 10.4 62 4.0 W 9 11 5 6 1016.0 1016.0 0.0
25/10:00pm 17.6 16.8 10.9 65 3.6 NW 6 7 3 4 1016.1 1016.1 0.0
25/09:30pm 18.0 16.5 10.6 62 4.0 WSW 9 13 5 7 1015.9 1015.9 0.0
25/09:00pm 18.5 16.9 10.1 58 4.5 WNW 9 11 5 6 1015.7 1015.7 0.0
25/08:30pm 18.9 16.1 9.9 56 4.8 NW 15 22 8 12 1015.7 1015.7 0.0
25/08:00pm 20.9 18.2 7.2 41 7.0 W 11 17 6 9 1015.3 1015.3 0.0
25/07:30pm 20.7 18.2 6.6 40 7.2 NW 9 11 5 6 1014.8 1014.8 0.0
25/07:00pm 21.3 18.7 6.0 37 7.7 N 9 13 5 7 1014.5 1014.5 0.0
25/06:30pm 21.7 19.1 6.0 36 7.9 N 9 11 5 6 1014.3 1014.3 0.0
25/06:00pm 22.5 19.5 5.9 34 8.4 NNW 11 17 6 9 1014.2 1014.2 0.0
25/05:30pm 23.3 19.5 5.7 32 8.9 NNW 15 20 8 11 1014.0 1014.0 0.0
25/05:00pm 23.7 19.5 5.6 31 9.2 NNW 17 22 9 12 1014.0 1014.0 0.0
25/04:30pm 24.1 18.9 5.5 30 9.5 NNW 22 32 12 17 1014.0 1014.0 0.0
25/04:00pm 25.0 20.3 6.2 30 9.7 NW 20 28 11 15 1014.1 1014.1 0.0
25/03:30pm 24.8 19.0 6.1 30 9.7 NNW 26 35 14 19 1014.3 1014.3 0.0
25/03:00pm 25.6 20.3 6.8 30 9.9 NW 24 35 13 19 1014.5 1014.5 0.0
25/02:30pm 25.1 19.7 6.3 30 9.8 NW 24 37 13 20 1014.6 1014.6 0.0
25/02:00pm 25.1 18.6 6.3 30 9.8 NW 30 39 16 21 1014.9 1014.9 0.0
25/01:30pm 25.1 18.7 6.8 31 9.6 NW 30 43 16 23 1015.4 1015.4 0.0
25/01:00pm 24.7 19.0 6.9 32 9.3 NNW 26 43 14 23 1015.8 1015.8 0.0
25/12:30pm 24.6 19.9 7.7 34 9.0 NW 22 35 12 19 1016.2 1016.2 0.0
25/12:00pm 23.5 17.5 7.2 35 8.5 NNW 28 41 15 22 1017.1 1017.0 0.0
25/11:30am 23.6 19.4 8.1 37 8.2 NW 20 32 11 17 1017.6 1017.5 0.0
25/11:00am 22.4 18.2 8.1 40 7.5 NNW 20 32 11 17 1017.9 1017.8 0.0
25/10:30am 21.9 17.4 8.4 42 7.1 NNW 22 35 12 19 1018.2 1018.1 0.0
25/10:00am 20.7 16.6 8.7 46 6.3 NNW 20 30 11 16 1018.4 1018.3 0.0
25/09:30am 19.1 14.9 8.4 50 5.6 NNW 20 32 11 17 1018.4 1018.3 0.0
25/09:00am 18.0 14.8 8.3 53 5.0 N 15 22 8 12 1018.5 1018.4 0.0
25/08:30am 16.1 12.4 7.8 58 4.2 N 17 24 9 13 1018.5 1018.4 0.0
25/08:00am 15.1 11.3 7.6 61 3.7 N 17 20 9 11 1018.4 1018.3 0.0
25/07:30am 14.3 10.8 7.4 63 3.4 N 15 20 8 11 1018.2 1018.1 0.0
25/07:00am 14.3 10.4 7.1 62 3.5 N 17 22 9 12 1018.1 1018.0 0.0
25/06:30am 14.6 10.7 7.2 61 3.6 N 17 22 9 12 1018.0 1017.9 0.0
25/06:00am 14.7 10.9 7.5 62 3.6 N 17 22 9 12 1017.9 1017.8 0.0
25/05:30am 14.5 10.7 7.5 63 3.5 N 17 22 9 12 1018.0 1017.9 0.0
25/05:00am 14.5 10.8 7.8 64 3.3 N 17 22 9 12 1017.9 1017.8 0.0
25/04:30am 14.5 11.1 7.8 64 3.3 N 15 20 8 11 1017.9 1017.8 0.0
25/04:00am 14.4 11.4 7.9 65 3.2 N 13 19 7 10 1018.0 1017.9 0.0
25/03:30am 14.3 11.4 8.0 66 3.2 N 13 19 7 10 1018.2 1018.1 0.0
25/03:00am 15.0 12.1 8.0 63 3.5 N 13 17 7 9 1018.4 1018.3 0.0
25/02:30am 15.8 12.6 8.3 61 3.8 N 15 20 8 11 1018.6 1018.5 0.0
25/02:00am 16.0 12.8 8.5 61 3.8 N 15 19 8 10 1018.9 1018.8 0.0
25/01:30am 16.0 12.9 8.7 62 3.7 N 15 19 8 10 1019.1 1019.0 0.0
25/01:00am 16.2 13.4 8.7 61 3.8 N 13 17 7 9 1019.2 1019.1 0.0
25/12:30am 16.4 13.7 8.9 61 3.9 N 13 17 7 9 1019.4 1019.3 0.0
25/12:00am 16.6 13.9 9.1 61 3.9 N 13 17 7 9 1019.7 1019.6 0.0
 
Date/Time
EST
Temp
°C
App
Temp
°C
Dew
Point
°C
Rel
Hum
%
Delta-T
°C
Wind Press
QNH
hPa
Press
MSL
hPa
Rain since
9am
mm
Dir  Spd
km/h
Gust
km/h
Spd
kts
Gust
kts
24/11:30pm 16.8 14.2 9.5 62 3.8 N 13 17 7 9 1019.9 1019.8 0.0
24/11:00pm 17.0 14.4 9.4 61 4.0 N 13 17 7 9 1020.0 1019.9 0.0
24/10:30pm 17.3 15.1 9.5 60 4.1 N 11 15 6 8 1020.2 1020.1 0.0
24/10:00pm 17.4 14.9 9.6 60 4.1 N 13 17 7 9 1020.3 1020.2 0.0
24/09:30pm 17.9 15.4 9.8 59 4.3 N 13 17 7 9 1020.2 1020.1 0.0
24/09:00pm 18.1 15.6 9.7 58 4.4 N 13 15 7 8 1020.3 1020.2 0.0
24/08:30pm 18.8 16.3 9.8 56 4.8 N 13 17 7 9 1020.3 1020.2 0.0
24/08:00pm 19.1 16.7 9.9 55 4.9 N 13 17 7 9 1020.3 1020.2 0.0
24/07:30pm 19.9 17.8 9.8 52 5.4 N 11 15 6 8 1020.1 1020.0 0.0
24/07:00pm 20.7 18.2 9.6 49 5.9 N 13 17 7 9 1020.0 1019.9 0.0
24/06:30pm 20.5 18.1 8.8 47 6.2 N 11 15 6 8 1019.9 1019.8 0.0
24/06:00pm 21.5 19.0 8.4 43 6.9 N 11 13 6 7 1019.7 1019.6 0.0
24/05:30pm 22.5 19.9 7.9 39 7.7 N 11 15 6 8 1019.6 1019.5 0.0
24/05:00pm 24.0 21.2 8.4 37 8.3 N 13 22 7 12 1019.6 1019.5 0.0
24/04:30pm 24.8 21.7 8.7 36 8.7 NW 15 22 8 12 1019.7 1019.6 0.0
24/04:00pm 25.2 22.2 9.1 36 8.8 NNW 15 20 8 11 1019.7 1019.6 0.0
24/03:30pm 25.5 21.8 9.3 36 8.9 NW 19 26 10 14 1019.6 1019.5 0.0

Other formats

Comma delimited format used in spreadsheet applications
http://www.bom.gov.au/fwo/IDN60801/IDN60801.95697.axf

JavaScript Object Notation format (JSON) in row-major order
http://www.bom.gov.au/fwo/IDN60801/IDN60801.95697.json

Data quality

Most of these data are generated automatically and are frequently updated. Quality checks on data are not normally performed. It is possible for incorrect values to appear. Refer to information at About Latest Weather Observations and please check the disclaimer before using these data.